createdAt,value
2023-03-21T00:01:06.668Z,4.97
2023-03-21T00:03:38.116Z,4.63
2023-03-21T00:06:11.335Z,4.82
2023-03-21T00:08:42.854Z,4.00
2023-03-21T00:11:16.832Z,4.38
2023-03-21T00:13:47.367Z,3.55
2023-03-21T00:16:29.502Z,4.70
2023-03-21T00:19:03.463Z,5.00
2023-03-21T00:21:51.933Z,5.22
2023-03-21T00:24:29.219Z,4.80
2023-03-21T00:27:26.875Z,3.90
2023-03-21T00:29:53.677Z,4.63
2023-03-21T00:32:25.154Z,3.53
2023-03-21T00:35:16.455Z,6.60
2023-03-21T00:37:47.159Z,4.72
2023-03-21T00:40:27.994Z,4.28
2023-03-21T00:43:06.493Z,3.45
2023-03-21T00:45:37.462Z,4.72
2023-03-21T00:48:08.387Z,3.80
2023-03-21T00:50:39.569Z,5.18
2023-03-21T00:53:10.437Z,2.63
2023-03-21T00:55:41.300Z,5.00
2023-03-21T00:58:15.501Z,4.13
2023-03-21T01:00:47.085Z,4.20
2023-03-21T01:03:24.893Z,6.72
2023-03-21T01:06:07.999Z,3.75
2023-03-21T01:08:51.817Z,3.42
2023-03-21T01:11:25.701Z,2.65
2023-03-21T01:14:11.197Z,4.10
2023-03-21T01:16:46.112Z,3.70
2023-03-21T01:19:29.211Z,3.13
2023-03-21T01:22:03.861Z,4.80
2023-03-21T01:24:37.675Z,4.32
2023-03-21T01:27:08.439Z,3.72
2023-03-21T01:29:41.764Z,5.88
2023-03-21T01:32:12.354Z,4.68
2023-03-21T01:34:43.132Z,4.43
2023-03-21T01:37:14.605Z,2.78
2023-03-21T01:39:50.580Z,3.80
2023-03-21T01:42:21.075Z,6.32
2023-03-21T01:45:03.253Z,3.70
2023-03-21T01:47:42.224Z,3.75
2023-03-21T01:50:24.218Z,3.83
2023-03-21T01:53:04.805Z,4.03
2023-03-21T01:55:39.459Z,6.03
2023-03-21T01:58:18.443Z,3.90
2023-03-21T02:01:12.841Z,4.75
2023-03-21T02:03:53.136Z,5.70
2023-03-21T02:06:58.613Z,3.67
2023-03-21T02:09:44.854Z,3.55
2023-03-21T02:12:20.005Z,3.92
2023-03-21T02:14:52.969Z,5.82
2023-03-21T02:17:38.969Z,4.40
2023-03-21T02:20:46.562Z,3.90
2023-03-21T02:24:03.303Z,2.30
2023-03-21T02:27:06.687Z,2.58
2023-03-21T02:30:29.415Z,3.80
2023-03-21T02:33:26.088Z,3.75
2023-03-21T02:36:18.779Z,3.05
2023-03-21T02:38:58.939Z,2.05
2023-03-21T02:41:40.312Z,3.08
2023-03-21T02:44:20.072Z,2.83
2023-03-21T02:47:03.176Z,3.72
2023-03-21T02:49:43.168Z,4.97
2023-03-21T02:52:35.425Z,4.35
2023-03-21T02:55:16.678Z,3.35
2023-03-21T03:00:27.490Z,2.72
2023-03-21T03:03:08.829Z,3.45
2023-03-21T03:05:46.893Z,6.70
2023-03-21T03:08:41.207Z,4.75
2023-03-21T03:11:28.849Z,3.10
2023-03-21T03:14:38.480Z,5.50
2023-03-21T03:17:21.966Z,4.45
2023-03-21T03:20:15.587Z,4.05
2023-03-21T03:22:56.765Z,5.50
2023-03-21T03:25:42.016Z,3.65
2023-03-21T03:28:21.563Z,4.72
2023-03-21T03:31:08.094Z,3.05
2023-03-21T03:33:49.576Z,4.53
2023-03-21T03:36:31.693Z,4.55
2023-03-21T03:39:10.507Z,3.47
2023-03-21T03:42:10.058Z,2.42
2023-03-21T03:44:55.066Z,2.20
2023-03-21T03:47:36.327Z,2.88
2023-03-21T03:50:16.504Z,2.20
2023-03-21T03:52:57.069Z,5.18
2023-03-21T03:55:34.548Z,2.70
2023-03-21T03:58:22.874Z,3.70
2023-03-21T04:00:59.321Z,4.90
2023-03-21T04:03:39.197Z,3.08
2023-03-21T04:06:17.381Z,2.92
2023-03-21T04:08:48.121Z,3.65
2023-03-21T04:11:19.219Z,3.55
2023-03-21T04:13:55.217Z,4.68
2023-03-21T04:16:33.341Z,2.85
2023-03-21T04:19:05.095Z,2.63
2023-03-21T04:21:36.659Z,4.82
2023-03-21T04:24:08.802Z,3.22
2023-03-21T04:26:39.733Z,3.80
2023-03-21T04:29:41.708Z,2.58
2023-03-21T04:32:34.065Z,4.80
2023-03-21T04:35:14.098Z,3.50
2023-03-21T04:37:45.267Z,3.60
2023-03-21T04:40:20.361Z,3.77
2023-03-21T04:42:52.081Z,2.70
2023-03-21T04:45:25.113Z,3.58
2023-03-21T04:47:58.590Z,3.10
2023-03-21T04:50:29.138Z,5.95
2023-03-21T04:52:59.840Z,5.40
2023-03-21T04:55:31.849Z,3.70
2023-03-21T04:58:02.770Z,1.90
2023-03-21T05:00:37.592Z,4.28
2023-03-21T05:03:19.616Z,3.83
2023-03-21T05:05:52.610Z,2.35
2023-03-21T05:08:23.513Z,2.38
2023-03-21T05:10:54.476Z,2.38
2023-03-21T05:13:25.834Z,3.17
2023-03-21T05:15:56.640Z,2.95
2023-03-21T05:18:30.544Z,2.28
2023-03-21T05:21:10.819Z,2.80
2023-03-21T05:23:47.610Z,2.40
2023-03-21T05:26:20.521Z,2.03
2023-03-21T05:29:02.768Z,2.60
2023-03-21T05:31:33.774Z,4.47
2023-03-21T05:34:13.218Z,3.67
2023-03-21T05:36:44.214Z,3.30
2023-03-21T05:39:15.765Z,3.10
2023-03-21T05:41:54.673Z,5.05
2023-03-21T05:44:25.340Z,3.22
2023-03-21T05:46:55.994Z,3.65
2023-03-21T05:49:35.556Z,4.55
2023-03-21T05:54:37.441Z,2.45
2023-03-21T05:57:09.745Z,2.13
2023-03-21T05:59:55.674Z,2.10
2023-03-21T06:02:26.177Z,2.35
2023-03-21T06:05:01.424Z,2.10
2023-03-21T06:07:32.045Z,2.90
2023-03-21T06:10:03.321Z,2.83
2023-03-21T06:12:34.190Z,4.95
2023-03-21T06:15:12.862Z,2.97
2023-03-21T06:17:56.017Z,2.83
2023-03-21T06:20:29.288Z,3.75
2023-03-21T06:23:07.347Z,3.50
2023-03-21T06:25:38.543Z,3.38
2023-03-21T06:28:09.602Z,5.45
2023-03-21T06:30:44.065Z,5.00
2023-03-21T06:33:19.651Z,2.63
2023-03-21T06:35:57.177Z,3.80
2023-03-21T06:38:28.817Z,3.75
2023-03-21T06:40:59.449Z,4.13
2023-03-21T06:43:35.084Z,4.00
2023-03-21T06:46:07.411Z,3.95
2023-03-21T06:48:39.400Z,3.60
2023-03-21T06:51:13.378Z,3.50
2023-03-21T06:53:51.093Z,4.28
2023-03-21T06:56:32.807Z,4.32
2023-03-21T06:59:06.204Z,3.90
2023-03-21T07:01:53.436Z,5.07
2023-03-21T07:04:24.244Z,3.45
2023-03-21T07:06:57.658Z,4.72
2023-03-21T07:09:29.581Z,2.88
2023-03-21T07:12:06.290Z,4.68
2023-03-21T07:14:49.117Z,3.00
2023-03-21T07:17:19.623Z,4.88
2023-03-21T07:19:50.370Z,5.32
2023-03-21T07:22:25.346Z,4.50
2023-03-21T07:25:04.676Z,4.70
2023-03-21T07:27:42.353Z,4.45
2023-03-21T07:30:14.380Z,6.35
2023-03-21T07:32:45.721Z,5.18
2023-03-21T07:35:21.719Z,10.13
2023-03-21T07:37:54.821Z,6.00
2023-03-21T07:40:25.331Z,4.50
2023-03-21T07:42:56.060Z,8.40
2023-03-21T07:45:36.715Z,9.85
2023-03-21T07:48:13.061Z,5.30
2023-03-21T07:50:43.983Z,7.00
2023-03-21T07:53:17.272Z,6.60
2023-03-21T07:55:47.877Z,5.85
2023-03-21T07:58:18.629Z,9.02
2023-03-21T08:00:49.367Z,6.80
2023-03-21T08:03:20.418Z,5.85
2023-03-21T08:05:50.918Z,9.00
2023-03-21T08:08:24.122Z,8.30
2023-03-21T08:10:54.695Z,5.13
2023-03-21T08:13:26.154Z,8.57
2023-03-21T08:15:56.993Z,12.10
2023-03-21T08:18:27.598Z,7.80
2023-03-21T08:20:59.346Z,10.52
2023-03-21T08:23:32.695Z,7.57
2023-03-21T08:26:03.936Z,8.40
2023-03-21T08:28:34.750Z,5.45
2023-03-21T08:31:10.098Z,5.10
2023-03-21T08:33:41.345Z,5.20
2023-03-21T08:36:13.373Z,6.18
2023-03-21T08:38:48.584Z,6.45
2023-03-21T08:41:22.133Z,9.88
2023-03-21T08:43:52.646Z,5.15
2023-03-21T08:46:23.151Z,6.45
2023-03-21T08:48:53.786Z,4.85
2023-03-21T08:51:24.728Z,4.95
2023-03-21T08:53:57.785Z,6.68
2023-03-21T08:56:28.844Z,6.60
2023-03-21T08:58:59.269Z,6.30
2023-03-21T09:01:30.042Z,6.20
2023-03-21T09:04:00.692Z,7.53
2023-03-21T09:06:31.377Z,8.48
2023-03-21T09:09:06.016Z,6.45
2023-03-21T09:11:36.597Z,4.60
2023-03-21T09:14:07.680Z,8.65
2023-03-21T09:16:38.463Z,5.43
2023-03-21T09:19:09.449Z,7.93
2023-03-21T09:21:40.513Z,4.88
2023-03-21T09:24:15.932Z,5.93
2023-03-21T09:26:46.595Z,5.38
2023-03-21T09:29:19.140Z,6.28
2023-03-21T09:31:49.935Z,7.32
2023-03-21T09:34:20.769Z,5.00
2023-03-21T09:36:54.947Z,5.55
2023-03-21T09:42:15.472Z,4.55
2023-03-21T09:44:57.720Z,4.32
2023-03-21T09:47:34.862Z,5.47
2023-03-21T09:50:15.287Z,8.68
2023-03-21T09:52:51.004Z,4.95
2023-03-21T09:55:31.118Z,8.45
2023-03-21T09:58:08.394Z,4.93
2023-03-21T10:00:42.231Z,6.40
2023-03-21T10:03:24.451Z,5.65
2023-03-21T10:05:57.550Z,5.35
2023-03-21T10:08:31.246Z,4.70
2023-03-21T10:11:09.666Z,6.32
2023-03-21T10:13:47.147Z,8.02
2023-03-21T10:16:20.267Z,9.25
2023-03-21T10:18:51.419Z,6.30
2023-03-21T10:21:51.399Z,6.90
2023-03-21T10:24:19.551Z,5.13
2023-03-21T10:26:55.546Z,4.60
2023-03-21T10:29:30.714Z,3.90
2023-03-21T10:32:04.521Z,3.92
2023-03-21T10:34:41.064Z,3.25
2023-03-21T10:37:12.087Z,2.97
2023-03-21T10:39:45.004Z,2.83
2023-03-21T10:42:24.054Z,4.47
2023-03-21T10:44:57.072Z,6.85
2023-03-21T10:47:29.533Z,5.35
2023-03-21T10:50:08.089Z,6.25
2023-03-21T10:52:41.498Z,4.38
2023-03-21T10:55:23.273Z,4.40
2023-03-21T10:58:02.170Z,5.28
2023-03-21T11:00:38.758Z,5.45
2023-03-21T11:03:10.927Z,7.07
2023-03-21T11:05:44.130Z,4.13
2023-03-21T11:08:18.019Z,6.78
2023-03-21T11:10:57.165Z,5.65
2023-03-21T11:13:37.356Z,3.70
2023-03-21T11:16:11.921Z,4.30
2023-03-21T11:18:45.238Z,6.40
2023-03-21T11:21:17.827Z,4.63
2023-03-21T11:23:50.518Z,4.45
2023-03-21T11:26:24.686Z,6.03
2023-03-21T11:28:58.816Z,4.45
2023-03-21T11:34:12.783Z,3.80
2023-03-21T11:36:43.927Z,5.07
2023-03-21T11:39:31.222Z,2.90
2023-03-21T11:42:02.232Z,5.20
2023-03-21T11:44:38.257Z,5.57
2023-03-21T11:47:11.998Z,6.80
2023-03-21T11:49:42.672Z,4.28
2023-03-21T11:52:23.872Z,3.30
2023-03-21T11:55:27.460Z,5.40
2023-03-21T11:58:17.453Z,5.32
2023-03-21T12:00:57.394Z,3.90
2023-03-21T12:03:57.669Z,5.15
2023-03-21T12:06:35.700Z,4.22
2023-03-21T12:09:20.573Z,2.70
2023-03-21T12:12:05.326Z,3.63
2023-03-21T12:17:31.150Z,4.20
2023-03-21T12:20:43.147Z,3.03
2023-03-21T12:23:42.744Z,3.67
2023-03-21T12:26:23.901Z,3.83
2023-03-21T12:29:22.567Z,4.55
2023-03-21T12:32:03.772Z,6.63
2023-03-21T12:34:56.382Z,2.90
2023-03-21T12:37:36.071Z,2.83
2023-03-21T12:40:14.853Z,3.60
2023-03-21T12:43:06.683Z,4.57
2023-03-21T12:45:47.176Z,3.28
2023-03-21T12:48:25.219Z,2.85
2023-03-21T12:51:02.897Z,4.15
2023-03-21T12:53:43.000Z,2.80
2023-03-21T12:56:18.400Z,4.47
2023-03-21T12:58:52.808Z,3.50
2023-03-21T13:01:25.391Z,4.30
2023-03-21T13:04:10.056Z,6.53
2023-03-21T13:06:44.339Z,3.45
2023-03-21T13:09:28.541Z,2.78
2023-03-21T13:12:06.610Z,3.58
2023-03-21T13:14:42.453Z,3.35
2023-03-21T13:17:22.071Z,2.53
2023-03-21T13:19:57.402Z,4.15
2023-03-21T13:22:32.664Z,5.43
2023-03-21T13:25:08.572Z,3.65
2023-03-21T13:27:41.550Z,5.35
2023-03-21T13:30:26.177Z,5.40
2023-03-21T13:33:08.656Z,5.32
2023-03-21T13:35:42.580Z,6.57
2023-03-21T13:38:21.427Z,5.30
2023-03-21T13:40:54.676Z,4.53
2023-03-21T13:43:46.786Z,3.85
2023-03-21T13:46:52.232Z,4.78
2023-03-21T13:49:35.640Z,3.30
2023-03-21T13:52:29.473Z,3.97
2023-03-21T13:55:06.481Z,4.35
2023-03-21T13:57:42.230Z,4.40
2023-03-21T14:00:24.416Z,5.60
2023-03-21T14:03:03.729Z,5.05
2023-03-21T14:05:35.559Z,4.63
2023-03-21T14:08:15.581Z,4.35
2023-03-21T14:10:59.919Z,3.58
2023-03-21T14:13:35.085Z,3.90
2023-03-21T14:16:12.890Z,3.30
2023-03-21T14:18:54.062Z,3.40
2023-03-21T14:21:28.173Z,2.38
2023-03-21T14:24:00.895Z,2.23
2023-03-21T14:26:37.280Z,5.15
2023-03-21T14:29:25.248Z,4.43
2023-03-21T14:32:00.216Z,2.40
2023-03-21T14:34:34.252Z,1.92
2023-03-21T14:37:04.787Z,2.28
2023-03-21T14:39:36.297Z,3.40
2023-03-21T14:42:11.473Z,4.25
2023-03-21T14:44:54.385Z,2.47
2023-03-21T14:47:28.380Z,3.45
2023-03-21T14:50:01.095Z,4.55
2023-03-21T14:52:34.689Z,2.55
2023-03-21T14:55:14.485Z,2.47
2023-03-21T14:57:47.974Z,2.95
2023-03-21T15:00:26.425Z,2.67
2023-03-21T15:02:58.183Z,1.90
2023-03-21T15:05:32.590Z,1.90
2023-03-21T15:08:05.270Z,2.45
2023-03-21T15:10:36.035Z,2.42
2023-03-21T15:13:17.971Z,2.90
2023-03-21T15:15:50.114Z,1.70
2023-03-21T15:18:27.951Z,2.35
2023-03-21T15:21:01.655Z,2.17
2023-03-21T15:23:36.765Z,2.90
2023-03-21T15:26:08.717Z,4.25
2023-03-21T15:28:42.041Z,3.28
2023-03-21T15:31:22.051Z,1.88
2023-03-21T15:33:54.990Z,2.28
2023-03-21T15:36:29.671Z,2.45
2023-03-21T15:39:03.982Z,2.92
2023-03-21T15:41:35.964Z,3.90
2023-03-21T15:44:17.775Z,2.30
2023-03-21T15:46:50.619Z,2.15
2023-03-21T15:49:25.259Z,5.40
2023-03-21T15:52:00.472Z,3.92
2023-03-21T15:54:34.234Z,2.03
2023-03-21T15:57:09.659Z,2.75
2023-03-21T15:59:47.956Z,2.42
2023-03-21T16:02:21.310Z,1.42
2023-03-21T16:04:59.733Z,1.83
2023-03-21T16:07:31.274Z,1.75
2023-03-21T16:10:04.699Z,2.47
2023-03-21T16:12:36.065Z,3.05
2023-03-21T16:15:10.202Z,2.10
2023-03-21T16:20:20.289Z,1.75
2023-03-21T16:22:51.610Z,2.40
2023-03-21T16:25:22.269Z,2.08
2023-03-21T16:27:53.295Z,2.42
2023-03-21T16:30:27.502Z,2.22
2023-03-21T16:35:28.871Z,0.95
2023-03-21T16:37:59.526Z,1.63
2023-03-21T16:40:34.738Z,2.38
2023-03-21T16:43:06.717Z,2.05
2023-03-21T16:45:40.511Z,1.38
2023-03-21T16:48:16.699Z,0.75
2023-03-21T16:51:01.171Z,2.83
2023-03-21T16:53:34.914Z,0.70
2023-03-21T16:56:06.550Z,1.98
2023-03-21T16:58:37.767Z,0.95
2023-03-21T17:01:15.736Z,2.65
2023-03-21T17:03:46.476Z,1.27
2023-03-21T17:06:18.968Z,1.42
2023-03-21T17:08:49.648Z,1.55
2023-03-21T17:11:22.309Z,1.70
2023-03-21T17:13:54.938Z,1.20
2023-03-21T17:16:28.817Z,2.60
2023-03-21T17:19:00.522Z,1.48
2023-03-21T17:21:32.938Z,1.70
2023-03-21T17:24:03.874Z,1.83
2023-03-21T17:26:34.476Z,1.60
2023-03-21T17:29:05.681Z,1.60
2023-03-21T17:31:40.204Z,1.65
2023-03-21T17:34:11.218Z,0.70
2023-03-21T17:36:44.318Z,0.98
2023-03-21T17:39:19.738Z,1.20
2023-03-21T17:41:50.298Z,0.75
2023-03-21T17:44:21.747Z,1.35
2023-03-21T17:46:56.410Z,2.72
2023-03-21T17:49:27.884Z,1.02
2023-03-21T17:51:58.550Z,1.15
2023-03-21T17:54:29.487Z,1.58
2023-03-21T17:57:00.105Z,1.10
2023-03-21T17:59:31.202Z,2.05
2023-03-21T18:02:04.501Z,1.95
2023-03-21T18:04:37.975Z,1.35
2023-03-21T18:07:13.839Z,1.55
2023-03-21T18:09:46.015Z,1.77
2023-03-21T18:12:17.490Z,1.65
2023-03-21T18:14:48.149Z,1.52
2023-03-21T18:17:21.648Z,1.70
2023-03-21T18:19:52.185Z,1.70
2023-03-21T18:22:22.891Z,1.23
2023-03-21T18:24:53.549Z,1.05
2023-03-21T18:27:24.337Z,1.55
2023-03-21T18:32:49.686Z,2.80
2023-03-21T18:35:24.727Z,1.85
2023-03-21T18:37:56.413Z,1.67
2023-03-21T18:40:27.670Z,1.60
2023-03-21T18:43:50.042Z,1.05
2023-03-21T18:45:49.577Z,1.08
2023-03-21T18:48:23.206Z,0.70
2023-03-21T18:50:54.321Z,0.73
2023-03-21T18:53:25.130Z,1.83
2023-03-21T18:55:56.629Z,0.80
2023-03-21T18:58:29.602Z,1.20
2023-03-21T19:01:02.743Z,2.42
2023-03-21T19:03:38.190Z,2.33
2023-03-21T19:08:41.769Z,1.55
2023-03-21T19:11:12.920Z,1.60
2023-03-21T19:13:44.513Z,1.42
2023-03-21T19:16:17.985Z,1.30
2023-03-21T19:18:56.689Z,1.75
2023-03-21T19:21:29.008Z,1.08
2023-03-21T19:24:26.404Z,1.48
2023-03-21T19:26:55.152Z,1.02
2023-03-21T19:29:26.724Z,0.93
2023-03-21T19:32:01.040Z,1.38
2023-03-21T19:34:35.286Z,1.67
2023-03-21T19:37:06.728Z,0.70
2023-03-21T19:39:39.345Z,0.93
2023-03-21T19:42:16.985Z,0.80
2023-03-21T19:44:48.491Z,0.90
2023-03-21T19:47:22.300Z,1.83
2023-03-21T19:52:48.515Z,0.68
2023-03-21T19:55:19.336Z,1.08
2023-03-21T19:57:51.043Z,0.88
2023-03-21T20:00:24.103Z,1.30
2023-03-21T20:02:54.918Z,0.95
2023-03-21T20:05:28.516Z,0.75
2023-03-21T20:08:01.214Z,0.50
2023-03-21T20:10:31.935Z,0.75
2023-03-21T20:13:03.153Z,0.93
2023-03-21T20:15:44.768Z,0.70
2023-03-21T20:18:18.759Z,0.85
2023-03-21T20:20:53.291Z,0.75
2023-03-21T20:23:24.163Z,1.13
2023-03-21T20:25:55.670Z,0.88
2023-03-21T20:28:28.586Z,1.23
2023-03-21T20:31:00.824Z,0.90
2023-03-21T20:33:32.110Z,1.15
2023-03-21T20:36:37.374Z,1.55
2023-03-21T20:38:58.448Z,0.93
2023-03-21T20:41:29.215Z,2.17
2023-03-21T20:44:41.656Z,0.40
2023-03-21T20:46:51.407Z,0.60
2023-03-21T20:49:23.202Z,0.98
2023-03-21T20:54:48.455Z,1.83
2023-03-21T20:57:20.116Z,1.60
2023-03-21T20:59:51.082Z,0.82
2023-03-21T21:02:22.704Z,1.15
2023-03-21T21:07:50.821Z,1.10
2023-03-21T21:10:22.434Z,1.30
2023-03-21T21:12:53.637Z,1.15
2023-03-21T21:15:24.622Z,1.42
2023-03-21T21:18:06.548Z,1.52
2023-03-21T21:20:38.777Z,1.75
2023-03-21T21:23:13.652Z,0.70
2023-03-21T21:25:44.998Z,1.33
2023-03-21T21:28:15.811Z,0.55
2023-03-21T21:30:46.582Z,1.15
2023-03-21T21:33:18.063Z,1.90
2023-03-21T21:35:49.710Z,1.40
2023-03-21T21:38:22.977Z,1.50
2023-03-21T21:40:54.485Z,1.08
2023-03-21T21:43:24.979Z,1.77
2023-03-21T21:45:56.054Z,1.15
2023-03-21T21:48:27.270Z,1.92
2023-03-21T21:50:59.262Z,1.92
2023-03-21T21:53:33.804Z,1.05
2023-03-21T21:56:04.293Z,1.25
2023-03-21T21:58:38.724Z,1.75
2023-03-21T22:01:10.117Z,2.28
2023-03-21T22:03:45.998Z,1.40
2023-03-21T22:06:17.635Z,2.05
2023-03-21T22:08:52.058Z,1.52
2023-03-21T22:11:22.978Z,1.30
2023-03-21T22:13:53.739Z,0.90
2023-03-21T22:16:24.609Z,2.15
2023-03-21T22:18:55.389Z,1.27
2023-03-21T22:21:25.893Z,2.28
2023-03-21T22:23:59.014Z,2.00
2023-03-21T22:26:29.677Z,1.20
2023-03-21T22:29:00.657Z,1.92
2023-03-21T22:31:32.323Z,1.05
2023-03-21T22:34:02.872Z,1.27
2023-03-21T22:36:34.629Z,1.15
2023-03-21T22:39:07.854Z,1.75
2023-03-21T22:41:38.316Z,1.45
2023-03-21T22:44:08.853Z,1.90
2023-03-21T22:46:39.608Z,2.50
2023-03-21T22:49:10.294Z,3.42
2023-03-21T22:51:41.592Z,2.15
2023-03-21T22:54:15.130Z,2.08
2023-03-21T22:56:45.603Z,3.17
2023-03-21T22:59:16.453Z,1.98
2023-03-21T23:01:47.342Z,1.45
2023-03-21T23:04:18.199Z,2.20
2023-03-21T23:06:49.130Z,2.10
2023-03-21T23:09:23.799Z,2.17
2023-03-21T23:11:54.300Z,1.58
2023-03-21T23:14:25.641Z,1.13
2023-03-21T23:17:00.438Z,1.10
2023-03-21T23:19:32.324Z,2.28
2023-03-21T23:22:02.969Z,2.38
2023-03-21T23:24:36.127Z,1.50
2023-03-21T23:27:06.820Z,0.83
2023-03-21T23:29:37.427Z,1.52
2023-03-21T23:32:08.294Z,2.47
2023-03-21T23:34:38.833Z,1.48
2023-03-21T23:37:09.662Z,1.58
2023-03-21T23:39:45.366Z,1.05
2023-03-21T23:42:16.240Z,1.15
2023-03-21T23:44:46.675Z,1.50
2023-03-21T23:47:18.218Z,1.08
2023-03-21T23:49:50.239Z,1.02
2023-03-21T23:52:21.494Z,0.80
2023-03-21T23:54:54.644Z,2.67
2023-03-21T23:57:25.367Z,1.27
2023-03-21T23:59:57.795Z,1.00
